Time;durP1;ratioP1;P1;durP2;ratioP2;P2;SDS_P1;SDS_P2;PMS_P1;PMS_P2;Temp;Humidity;BMP_temperature;BMP_pressure;BME280_temperature;BME280_humidity;BME280_pressure;Samples;Min_cycle;Max_cycle;Signal;HPM_P1;HPM_P2
2023/01/09 00:02:10;;;;;;;204.35;112.97;;;3.30;99.90;;;;;;4982425;28;20049;-71
2023/01/09 00:04:37;;;;;;;231.70;129.43;;;3.30;99.90;;;;;;4982067;28;20061;-72
2023/01/09 00:07:05;;;;;;;217.40;120.55;;;3.30;99.90;;;;;;4980751;28;20047;-72
2023/01/09 00:09:32;;;;;;;204.43;118.97;;;3.40;99.90;;;;;;4982502;28;20070;-72
2023/01/09 00:12:01;;;;;;;231.48;126.00;;;3.40;99.90;;;;;;4980556;28;20470;-71
2023/01/09 00:14:30;;;;;;;255.23;139.75;;;3.40;99.90;;;;;;4980550;28;20038;-73
2023/01/09 00:16:57;;;;;;;248.38;137.80;;;3.40;99.90;;;;;;4981189;28;20051;-72
2023/01/09 00:19:25;;;;;;;231.13;127.03;;;3.40;99.90;;;;;;4980453;28;20042;-72
2023/01/09 00:21:52;;;;;;;236.32;128.80;;;3.40;99.90;;;;;;4980908;28;20046;-72
2023/01/09 00:24:19;;;;;;;231.00;130.23;;;3.40;99.90;;;;;;4980631;28;20042;-71
2023/01/09 00:26:47;;;;;;;233.15;129.93;;;3.40;99.90;;;;;;4979493;28;20122;-71
2023/01/09 00:29:15;;;;;;;227.90;127.53;;;3.40;98.50;;;;;;4978911;28;20426;-73
2023/01/09 00:31:44;;;;;;;215.75;122.05;;;3.40;1.00;;;;;;4981122;28;20050;-72
2023/01/09 00:34:12;;;;;;;219.13;123.47;;;3.40;1.00;;;;;;4979563;28;20050;-71
2023/01/09 00:36:39;;;;;;;204.75;115.53;;;3.40;1.00;;;;;;4979360;28;20073;-72
2023/01/09 00:39:07;;;;;;;187.93;106.80;;;3.40;1.00;;;;;;4978401;28;20043;-71
2023/01/09 00:41:38;;;;;;;204.07;114.93;;;3.40;99.90;;;;;;4980661;28;20053;-72
2023/01/09 00:44:10;;;;;;;213.15;119.70;;;3.30;1.00;;;;;;4979910;28;20043;-73
2023/01/09 00:46:42;;;;;;;207.05;120.22;;;3.30;1.00;;;;;;4978086;28;20057;-71
2023/01/09 00:49:12;;;;;;;206.23;117.78;;;3.30;1.00;;;;;;4979783;28;20501;-72
2023/01/09 00:51:41;;;;;;;189.95;108.32;;;3.30;1.00;;;;;;4980298;28;20042;-73
2023/01/09 00:54:10;;;;;;;197.77;114.18;;;3.30;36.90;;;;;;4980121;28;20043;-71
2023/01/09 00:56:38;;;;;;;203.60;117.10;;;3.40;99.90;;;;;;4980037;28;20039;-72
2023/01/09 00:59:07;;;;;;;196.40;112.47;;;3.30;1.00;;;;;;4980282;28;20038;-72
2023/01/09 01:01:34;;;;;;;205.40;113.88;;;3.30;1.00;;;;;;4979608;28;20034;-73
2023/01/09 01:07:37;;;;;;;171.63;97.75;;;3.30;1.00;;;;;;4980237;28;20043;-71
2023/01/09 01:09:36;;;;;;;140.93;82.45;;;3.30;29.70;;;;;;4979466;28;20042;-71
2023/01/09 01:12:05;;;;;;;114.72;65.80;;;3.30;99.90;;;;;;4979153;28;20501;-72
2023/01/09 01:14:33;;;;;;;115.60;63.00;;;3.40;99.90;;;;;;4983200;28;20043;-72
2023/01/09 01:17:01;;;;;;;143.77;79.25;;;3.60;99.90;;;;;;4980245;28;20070;-73
2023/01/09 01:19:29;;;;;;;154.93;89.10;;;3.60;99.90;;;;;;4980835;28;20042;-72
2023/01/09 01:21:58;;;;;;;177.02;94.70;;;3.50;99.90;;;;;;4977429;28;20415;-72
2023/01/09 01:24:25;;;;;;;159.70;88.80;;;3.50;99.90;;;;;;4983984;28;20047;-73
2023/01/09 01:26:52;;;;;;;144.02;82.82;;;3.40;1.00;;;;;;4980754;28;20069;-73
2023/01/09 01:29:20;;;;;;;141.10;81.63;;;3.40;99.90;;;;;;4985628;28;20062;-73
2023/01/09 01:31:47;;;;;;;146.38;86.15;;;3.50;1.00;;;;;;4984943;28;20438;-72
2023/01/09 01:34:15;;;;;;;159.55;93.50;;;3.50;1.00;;;;;;4978570;28;20050;-71
2023/01/09 01:36:42;;;;;;;171.88;93.20;;;3.60;99.90;;;;;;4980817;28;20112;-71
2023/01/09 01:39:14;;;;;;;179.95;96.82;;;3.60;99.90;;;;;;4978192;28;20173;-72
2023/01/09 01:41:41;;;;;;;182.25;100.75;;;3.60;1.00;;;;;;4979695;28;20066;-71
2023/01/09 01:44:42;;;;;;;190.50;99.70;;;3.50;1.00;;;;;;4979436;28;20034;-72
2023/01/09 01:47:09;;;;;;;176.57;98.75;;;3.50;1.00;;;;;;4981614;28;20126;-72
2023/01/09 01:49:37;;;;;;;157.05;90.70;;;3.40;99.90;;;;;;4981841;28;20624;-72
2023/01/09 01:52:05;;;;;;;148.27;85.15;;;3.40;1.00;;;;;;4983882;28;20046;-72
2023/01/09 01:54:34;;;;;;;128.25;73.57;;;3.40;99.90;;;;;;4982749;28;20073;-71
2023/01/09 01:57:04;;;;;;;160.45;93.85;;;3.50;1.00;;;;;;4983998;28;20047;-72
2023/01/09 01:59:37;;;;;;;162.10;93.60;;;3.50;17.70;;;;;;4981497;28;20137;-72
2023/01/09 02:02:05;;;;;;;155.70;89.82;;;3.50;1.00;;;;;;4982119;28;20038;-72
2023/01/09 02:04:35;;;;;;;160.80;93.20;;;3.50;1.00;;;;;;4982733;28;20057;-72
2023/01/09 02:07:07;;;;;;;146.40;87.68;;;3.50;1.00;;;;;;4983187;28;20463;-72
2023/01/09 02:09:37;;;;;;;149.55;85.72;;;3.50;1.00;;;;;;4982679;28;20045;-73
2023/01/09 02:12:16;;;;;;;147.55;85.10;;;3.60;1.00;;;;;;4982591;28;20093;-71
2023/01/09 02:14:45;;;;;;;136.23;74.45;;;3.60;99.90;;;;;;4982189;28;20514;-70
2023/01/09 02:17:22;;;;;;;130.68;76.15;;;3.70;93.40;;;;;;4981341;28;20046;-72
2023/01/09 02:20:24;;;;;;;124.28;70.57;;;3.70;99.90;;;;;;4982828;28;20058;-71
2023/01/09 02:23:12;;;;;;;137.77;76.30;;;3.80;1.00;;;;;;4982500;28;20047;-71
2023/01/09 02:26:12;;;;;;;71.03;41.88;;;3.80;1.00;;;;;;4982143;28;20060;-72
2023/01/09 02:29:06;;;;;;;78.57;46.70;;;3.90;99.90;;;;;;4981314;28;20053;-71
2023/01/09 02:31:44;;;;;;;62.42;38.63;;;3.90;1.00;;;;;;4952898;28;20069;-71
2023/01/09 02:34:17;;;;;;;86.90;51.78;;;4.10;1.00;;;;;;4982778;28;20541;-71
2023/01/09 02:36:53;;;;;;;89.43;53.83;;;4.10;99.90;;;;;;4977300;28;20154;-71
2023/01/09 02:39:29;;;;;;;111.25;63.90;;;4.10;1.00;;;;;;4980731;28;20043;-72
2023/01/09 02:42:02;;;;;;;105.63;61.20;;;4.10;1.00;;;;;;4981714;28;20045;-72
2023/01/09 02:44:33;;;;;;;89.13;51.55;;;4.20;1.00;;;;;;4981334;28;20074;-71
2023/01/09 02:47:04;;;;;;;90.38;50.03;;;4.10;1.00;;;;;;4982365;28;20039;-71
2023/01/09 02:49:32;;;;;;;94.00;54.53;;;4.10;1.00;;;;;;4980584;28;20549;-71
2023/01/09 02:52:22;;;;;;;90.78;52.17;;;4.10;21.40;;;;;;4980294;28;20050;-71
2023/01/09 02:55:00;;;;;;;98.30;54.53;;;4.20;1.00;;;;;;4980852;28;20121;-72
2023/01/09 02:57:48;;;;;;;83.80;49.53;;;4.20;1.00;;;;;;4981519;28;20085;-71
2023/01/09 03:00:29;;;;;;;86.75;49.70;;;4.30;99.90;;;;;;4983368;28;20038;-72
2023/01/09 03:03:07;;;;;;;63.15;36.08;;;4.30;99.90;;;;;;4982502;28;20043;-72
2023/01/09 03:05:41;;;;;;;82.80;46.30;;;4.30;1.00;;;;;;4983054;28;20034;-72
2023/01/09 03:08:13;;;;;;;79.07;46.17;;;4.30;1.00;;;;;;4982461;28;20517;-72
2023/01/09 03:10:46;;;;;;;74.90;42.30;;;4.20;99.90;;;;;;4976767;28;20042;-71
2023/01/09 03:13:17;;;;;;;71.00;43.30;;;4.20;1.00;;;;;;4980068;28;20053;-73
2023/01/09 03:15:49;;;;;;;92.30;52.33;;;4.20;99.90;;;;;;4980903;28;20042;-72
2023/01/09 03:18:23;;;;;;;90.05;52.10;;;4.20;99.90;;;;;;4980820;28;20483;-71
2023/01/09 03:20:53;;;;;;;90.28;52.95;;;4.30;99.90;;;;;;4978823;28;20070;-71
2023/01/09 03:23:20;;;;;;;90.78;52.90;;;4.30;1.00;;;;;;4980121;28;20125;-71
2023/01/09 03:25:48;;;;;;;97.75;53.83;;;4.30;63.60;;;;;;4981337;28;20403;-73
2023/01/09 03:28:27;;;;;;;92.60;51.53;;;4.30;99.90;;;;;;4979648;28;20043;-73
2023/01/09 03:30:55;;;;;;;63.83;39.20;;;4.30;1.00;;;;;;4980225;28;20046;-70
2023/01/09 03:33:23;;;;;;;51.70;29.35;;;4.30;99.90;;;;;;4979222;28;20042;-72
2023/01/09 03:35:51;;;;;;;57.22;36.38;;;4.40;1.00;;;;;;4981612;28;20427;-72
2023/01/09 03:38:18;;;;;;;69.53;38.55;;;4.30;99.90;;;;;;4981511;28;20058;-72
2023/01/09 03:40:47;;;;;;;62.08;34.60;;;4.30;1.00;;;;;;4982639;28;20038;-71
2023/01/09 03:43:14;;;;;;;63.55;38.38;;;4.30;1.00;;;;;;4984315;28;20035;-72
2023/01/09 03:45:43;;;;;;;69.82;42.45;;;4.30;1.00;;;;;;4990475;28;20107;-71
2023/01/09 03:48:10;;;;;;;70.20;42.97;;;4.20;53.90;;;;;;4989304;28;20112;-72
2023/01/09 03:50:41;;;;;;;75.60;45.22;;;4.20;99.90;;;;;;4983335;28;20051;-71
2023/01/09 03:53:08;;;;;;;77.97;45.10;;;4.20;99.90;;;;;;4981266;28;20035;-71
2023/01/09 03:55:36;;;;;;;77.63;44.92;;;4.20;1.00;;;;;;4975379;28;20047;-72
2023/01/09 03:58:03;;;;;;;92.75;45.45;;;4.20;1.00;;;;;;4978037;28;20037;-72
2023/01/09 04:00:30;;;;;;;77.13;41.80;;;4.20;1.00;;;;;;4981051;28;20097;-73
2023/01/09 04:02:58;;;;;;;89.50;46.63;;;4.30;1.00;;;;;;4980207;28;20057;-72
2023/01/09 04:05:25;;;;;;;80.90;42.63;;;4.30;1.00;;;;;;4978877;28;20039;-72
2023/01/09 04:07:54;;;;;;;87.53;45.90;;;4.40;99.90;;;;;;4979692;28;20034;-71
2023/01/09 04:10:21;;;;;;;58.40;29.45;;;4.40;1.00;;;;;;4981915;28;20046;-71
2023/01/09 04:12:49;;;;;;;53.85;30.35;;;4.50;1.00;;;;;;4979362;28;20047;-73
2023/01/09 04:15:16;;;;;;;58.95;32.80;;;4.60;1.00;;;;;;4979987;28;20042;-72
2023/01/09 04:17:44;;;;;;;71.15;37.30;;;4.70;97.00;;;;;;4979494;28;20422;-72
2023/01/09 04:20:12;;;;;;;61.20;33.35;;;4.80;1.00;;;;;;4982132;28;20049;-72
2023/01/09 04:22:40;;;;;;;67.55;38.38;;;4.80;99.90;;;;;;4980370;28;20043;-71
2023/01/09 04:25:10;;;;;;;48.90;29.35;;;4.80;1.00;;;;;;4982498;28;20034;-73
2023/01/09 04:27:37;;;;;;;46.55;27.73;;;4.80;1.00;;;;;;4979647;28;20043;-73
2023/01/09 04:30:06;;;;;;;50.35;30.20;;;4.90;57.80;;;;;;4979945;28;20038;-73
2023/01/09 04:32:33;;;;;;;58.20;31.88;;;5.00;1.00;;;;;;4980393;28;20055;-72
2023/01/09 04:35:01;;;;;;;61.47;36.03;;;5.00;99.90;;;;;;4980190;28;20047;-71
2023/01/09 04:37:28;;;;;;;55.85;33.92;;;4.90;1.00;;;;;;4978953;28;20089;-71
2023/01/09 04:39:56;;;;;;;56.72;31.92;;;5.00;1.00;;;;;;4979564;28;20396;-72
2023/01/09 04:42:25;;;;;;;47.83;30.77;;;5.00;99.90;;;;;;4979825;28;20042;-72
2023/01/09 04:44:53;;;;;;;78.85;40.25;;;5.10;99.90;;;;;;4980412;28;20038;-72
2023/01/09 04:47:22;;;;;;;64.22;34.42;;;5.10;1.00;;;;;;4980450;28;20050;-71
2023/01/09 04:49:49;;;;;;;70.40;37.63;;;5.10;99.90;;;;;;4979048;28;20510;-70
2023/01/09 04:52:17;;;;;;;69.18;38.33;;;5.20;99.90;;;;;;4980225;28;20043;-72
2023/01/09 04:54:44;;;;;;;67.95;41.03;;;5.20;1.00;;;;;;4978634;28;20047;-70
2023/01/09 04:57:12;;;;;;;69.15;39.53;;;5.20;1.00;;;;;;4979903;28;20046;-71
2023/01/09 04:59:41;;;;;;;59.80;35.90;;;5.20;1.00;;;;;;4979235;28;20038;-71
2023/01/09 05:02:08;;;;;;;60.35;34.83;;;5.20;99.90;;;;;;4979152;28;20035;-72
2023/01/09 05:04:36;;;;;;;59.65;36.65;;;5.20;1.00;;;;;;4978680;28;20038;-72
2023/01/09 05:07:03;;;;;;;62.00;37.53;;;5.30;1.00;;;;;;4979451;28;20042;-72
2023/01/09 05:09:31;;;;;;;62.22;36.83;;;5.40;99.90;;;;;;4977631;28;20057;-73
2023/01/09 05:11:58;;;;;;;62.13;36.45;;;5.40;99.90;;;;;;4979944;28;20050;-72
2023/01/09 05:14:26;;;;;;;82.38;38.10;;;5.40;1.00;;;;;;4980751;28;20042;-73
2023/01/09 05:16:55;;;;;;;59.67;33.97;;;5.50;1.00;;;;;;4979947;28;20034;-71
2023/01/09 05:19:22;;;;;;;65.75;38.80;;;5.60;1.00;;;;;;4980240;28;20050;-71
2023/01/09 05:21:49;;;;;;;76.30;42.70;;;5.70;99.90;;;;;;4982359;28;20050;-72
2023/01/09 05:24:17;;;;;;;64.85;34.63;;;5.70;95.40;;;;;;4984063;28;20049;-73
2023/01/09 05:26:45;;;;;;;47.60;29.92;;;5.70;1.00;;;;;;4983626;28;20050;-73
2023/01/09 05:29:12;;;;;;;71.75;39.80;;;5.80;1.00;;;;;;4981949;28;20400;-72
2023/01/09 05:31:40;;;;;;;50.78;29.55;;;5.80;1.00;;;;;;4983862;28;20043;-72
2023/01/09 05:34:08;;;;;;;52.30;29.13;;;5.90;99.90;;;;;;4983108;28;20050;-71
2023/01/09 05:36:36;;;;;;;49.63;28.45;;;5.90;1.00;;;;;;4983086;28;20049;-70
2023/01/09 05:39:04;;;;;;;81.55;39.53;;;5.90;99.90;;;;;;4982748;28;20606;-73
2023/01/09 05:41:31;;;;;;;63.78;33.42;;;5.90;99.90;;;;;;4984076;28;20038;-72
2023/01/09 05:43:59;;;;;;;60.10;31.90;;;5.90;99.90;;;;;;4982590;28;20042;-71
2023/01/09 05:46:26;;;;;;;44.67;28.48;;;5.90;99.90;;;;;;4983000;28;20133;-71
2023/01/09 05:48:54;;;;;;;50.75;29.52;;;5.90;99.90;;;;;;4983791;28;20483;-72
2023/01/09 05:51:23;;;;;;;94.07;45.70;;;6.00;99.90;;;;;;4984612;28;20045;-72
2023/01/09 05:53:50;;;;;;;92.57;46.78;;;6.10;1.00;;;;;;4983882;28;20038;-71
2023/01/09 05:56:18;;;;;;;118.55;58.17;;;6.10;33.70;;;;;;4983546;28;20046;-71
2023/01/09 05:58:45;;;;;;;121.43;58.50;;;6.00;1.00;;;;;;4984715;28;20055;-72
2023/01/09 06:01:12;;;;;;;131.88;59.20;;;5.90;99.90;;;;;;4986004;28;20039;-73
2023/01/09 06:03:40;;;;;;;123.07;60.72;;;5.90;1.00;;;;;;4985916;28;20046;-73
2023/01/09 06:06:08;;;;;;;143.07;63.10;;;6.00;82.70;;;;;;4983272;28;20042;-70
2023/01/09 06:08:36;;;;;;;155.68;71.30;;;6.00;1.00;;;;;;4983076;28;20046;-72
2023/01/09 06:11:04;;;;;;;142.57;66.88;;;6.00;1.00;;;;;;4981373;28;20042;-73
2023/01/09 06:13:31;;;;;;;153.57;71.53;;;6.10;99.90;;;;;;4983545;28;20043;-72
2023/01/09 06:15:58;;;;;;;151.52;71.15;;;6.10;1.00;;;;;;4982271;28;20045;-72
2023/01/09 06:18:26;;;;;;;153.35;72.75;;;6.10;1.00;;;;;;4982292;28;20070;-73
2023/01/09 06:20:53;;;;;;;126.60;63.70;;;6.20;1.00;;;;;;4981328;28;20090;-72
2023/01/09 06:23:21;;;;;;;139.93;67.38;;;6.30;95.00;;;;;;4981443;28;20463;-72
2023/01/09 06:25:50;;;;;;;132.65;66.25;;;6.30;1.00;;;;;;4981554;28;21485;-73
2023/01/09 06:28:17;;;;;;;133.00;66.07;;;6.40;1.00;;;;;;4982600;28;20081;-71
2023/01/09 06:30:45;;;;;;;120.18;59.90;;;6.50;1.00;;;;;;4982472;28;20053;-73
2023/01/09 06:33:12;;;;;;;197.00;91.00;;;6.60;1.00;;;;;;4982937;28;20142;-72
2023/01/09 06:35:40;;;;;;;198.57;95.47;;;6.70;99.90;;;;;;4984418;28;20062;-72
2023/01/09 06:38:07;;;;;;;193.07;98.07;;;6.70;1.00;;;;;;4981854;28;20039;-74
2023/01/09 06:40:34;;;;;;;164.07;84.63;;;6.70;1.00;;;;;;4986562;28;20038;-71
2023/01/09 06:43:03;;;;;;;173.90;93.82;;;6.70;99.90;;;;;;4986406;28;20459;-72
2023/01/09 06:45:31;;;;;;;191.50;101.97;;;6.70;99.90;;;;;;4987185;28;20093;-72
2023/01/09 06:47:58;;;;;;;181.80;101.05;;;6.70;99.90;;;;;;4986247;28;20035;-71
2023/01/09 06:50:25;;;;;;;182.50;101.47;;;6.60;1.00;;;;;;4982934;28;20043;-73
2023/01/09 06:52:53;;;;;;;198.43;111.68;;;6.60;99.90;;;;;;4982167;28;20139;-74
2023/01/09 06:55:20;;;;;;;207.48;111.07;;;6.60;99.90;;;;;;4982753;28;20050;-72
2023/01/09 06:57:48;;;;;;;224.48;118.90;;;6.60;1.00;;;;;;4996551;28;20047;-72
2023/01/09 07:00:18;;;;;;;218.02;114.50;;;6.60;1.00;;;;;;4981581;28;20050;-71
2023/01/09 07:02:45;;;;;;;207.38;112.55;;;6.60;1.00;;;;;;4981866;28;20049;-74
2023/01/09 07:05:12;;;;;;;237.38;121.03;;;6.60;1.00;;;;;;4982427;28;20410;-71
2023/01/09 07:07:40;;;;;;;172.95;95.18;;;6.70;1.00;;;;;;4982908;28;20035;-73
2023/01/09 07:10:09;;;;;;;195.05;109.07;;;6.80;1.00;;;;;;4984764;28;20066;-74
2023/01/09 07:12:37;;;;;;;222.30;124.57;;;6.80;1.00;;;;;;4985249;28;20045;-73
2023/01/09 07:15:05;;;;;;;257.50;143.68;;;6.80;1.00;;;;;;4986721;28;20495;-71
2023/01/09 07:17:34;;;;;;;197.18;112.32;;;6.90;1.00;;;;;;4986335;28;20164;-71
2023/01/09 07:20:01;;;;;;;230.90;134.82;;;6.90;1.00;;;;;;4983715;28;20419;-73
2023/01/09 07:22:29;;;;;;;223.52;124.72;;;6.90;1.00;;;;;;4982560;28;20411;-72
2023/01/09 07:24:56;;;;;;;231.38;130.55;;;6.90;1.00;;;;;;4985896;28;20041;-72
2023/01/09 07:27:24;;;;;;;241.48;136.90;;;6.90;1.00;;;;;;4985961;28;20051;-72
2023/01/09 07:29:52;;;;;;;226.57;127.28;;;7.00;1.00;;;;;;4985325;28;20046;-74
2023/01/09 07:32:19;;;;;;;148.45;82.88;;;7.10;1.00;;;;;;4985470;28;20077;-74
2023/01/09 07:34:50;;;;;;;159.80;87.88;;;7.10;1.00;;;;;;4982994;28;20389;-72
2023/01/09 07:37:18;;;;;;;254.25;141.10;;;7.20;1.00;;;;;;4981622;28;20117;-74
2023/01/09 07:39:45;;;;;;;248.70;133.95;;;7.30;1.00;;;;;;4983609;28;20042;-74
2023/01/09 07:42:12;;;;;;;228.57;123.18;;;7.30;1.00;;;;;;4980661;28;20039;-72
2023/01/09 07:44:40;;;;;;;231.07;132.95;;;7.40;1.00;;;;;;4976040;28;20121;-72
2023/01/09 07:47:08;;;;;;;261.08;142.77;;;7.50;99.90;;;;;;4986208;28;20039;-72
2023/01/09 07:49:35;;;;;;;291.63;151.13;;;7.50;99.90;;;;;;4985254;28;20542;-72
2023/01/09 07:52:04;;;;;;;263.30;145.63;;;7.60;99.90;;;;;;4981308;28;20065;-71
2023/01/09 07:54:32;;;;;;;282.85;146.90;;;7.60;1.00;;;;;;4977573;28;20491;-72
2023/01/09 07:56:59;;;;;;;256.15;141.85;;;7.70;1.00;;;;;;4980995;28;20048;-72
2023/01/09 07:59:28;;;;;;;241.23;135.68;;;7.80;1.00;;;;;;4980730;28;20376;-71
2023/01/09 08:01:56;;;;;;;260.55;141.52;;;7.90;1.00;;;;;;4977828;28;20045;-71
2023/01/09 08:04:23;;;;;;;177.35;97.68;;;8.00;99.90;;;;;;4979800;28;20054;-72
2023/01/09 08:06:51;;;;;;;166.15;92.78;;;8.20;99.90;;;;;;4982571;28;20043;-72
2023/01/09 08:09:19;;;;;;;169.40;94.32;;;8.20;21.70;;;;;;4980193;28;20523;-72
2023/01/09 08:11:47;;;;;;;170.52;96.03;;;8.30;93.00;;;;;;4990391;28;20471;-72
2023/01/09 08:14:14;;;;;;;201.50;115.47;;;8.30;99.90;;;;;;4981000;28;20049;-73
2023/01/09 08:16:42;;;;;;;193.55;107.18;;;8.40;7.50;;;;;;4986375;28;20155;-72
2023/01/09 08:19:10;;;;;;;248.52;138.05;;;8.50;1.00;;;;;;4985012;28;20045;-71
2023/01/09 08:21:38;;;;;;;208.60;119.05;;;8.50;1.00;;;;;;4984626;28;20090;-73
2023/01/09 08:24:06;;;;;;;218.05;119.28;;;8.50;1.00;;;;;;4987524;28;20051;-72
2023/01/09 08:26:35;;;;;;;202.98;116.35;;;8.50;1.00;;;;;;4991793;28;20057;-71
2023/01/09 08:29:02;;;;;;;188.70;109.22;;;8.60;1.00;;;;;;4982642;28;20046;-71
2023/01/09 08:31:30;;;;;;;186.70;109.97;;;8.60;53.50;;;;;;4977572;28;20598;-72
2023/01/09 08:33:57;;;;;;;200.32;109.35;;;8.70;99.90;;;;;;4980895;28;20509;-72
2023/01/09 08:36:24;;;;;;;186.55;108.07;;;8.70;99.90;;;;;;4987819;28;20058;-71
2023/01/09 08:38:52;;;;;;;198.18;114.00;;;8.80;99.90;;;;;;4987678;28;20058;-72
2023/01/09 08:47:05;;;;;;;256.02;152.63;;;8.70;1.00;;;;;;4981085;28;20523;-71
2023/01/09 08:49:33;;;;;;;263.73;152.75;;;8.70;1.00;;;;;;4981983;28;20125;-71
2023/01/09 08:52:00;;;;;;;254.98;148.48;;;8.60;99.90;;;;;;4982223;28;20537;-71
2023/01/09 08:54:28;;;;;;;248.43;146.95;;;8.60;1.00;;;;;;4983759;28;20042;-72
2023/01/09 08:56:55;;;;;;;230.52;134.38;;;8.60;1.00;;;;;;4983324;28;20038;-72
2023/01/09 08:59:24;;;;;;;255.32;152.27;;;8.60;99.90;;;;;;4979553;28;20129;-73
2023/01/09 09:01:51;;;;;;;277.20;164.93;;;8.60;1.00;;;;;;4982630;28;20443;-72
2023/01/09 09:04:19;;;;;;;261.55;152.65;;;8.60;1.00;;;;;;4988187;28;20072;-72
2023/01/09 09:06:46;;;;;;;345.95;218.70;;;8.70;1.00;;;;;;4988057;28;20038;-72
2023/01/09 09:09:13;;;;;;;357.63;231.10;;;8.70;1.00;;;;;;4985057;28;20043;-72
2023/01/09 09:11:41;;;;;;;379.60;229.43;;;8.70;1.00;;;;;;4978765;28;20127;-72
2023/01/09 09:16:51;;;;;;;311.50;191.90;;;8.80;1.00;;;;;;4984005;28;20050;-71
2023/01/09 09:19:19;;;;;;;337.20;210.32;;;8.90;99.90;;;;;;4982069;28;20045;-73
2023/01/09 09:21:46;;;;;;;314.20;195.13;;;9.00;99.90;;;;;;4982118;28;20505;-74
2023/01/09 09:24:14;;;;;;;304.35;195.45;;;9.20;1.00;;;;;;4983157;28;20077;-73
2023/01/09 09:26:41;;;;;;;325.13;204.10;;;9.30;82.20;;;;;;4981193;28;20042;-72
2023/01/09 09:29:09;;;;;;;335.42;214.45;;;9.40;1.00;;;;;;4979717;28;20041;-72
2023/01/09 09:31:37;;;;;;;280.75;169.77;;;9.50;1.00;;;;;;4979733;28;20595;-72
2023/01/09 09:34:07;;;;;;;319.17;203.68;;;9.60;1.00;;;;;;4979509;28;20080;-72
2023/01/09 09:36:35;;;;;;;316.90;200.48;;;9.70;31.30;;;;;;4980564;28;20039;-71
2023/01/09 09:39:02;;;;;;;306.98;193.88;;;9.80;99.90;;;;;;4977735;28;20047;-71
2023/01/09 09:45:06;;;;;;;281.65;172.70;;;10.00;99.90;;;;;;4978029;28;20134;-71
2023/01/09 09:47:46;;;;;;;248.05;154.77;;;10.20;1.00;;;;;;4979939;28;20085;-71
2023/01/09 09:50:26;;;;;;;268.55;168.98;;;10.20;1.00;;;;;;4978990;28;20050;-72
2023/01/09 09:53:03;;;;;;;241.10;151.20;;;10.20;1.00;;;;;;4980245;28;20038;-72
2023/01/09 09:55:33;;;;;;;261.90;168.90;;;10.30;1.00;;;;;;4979480;28;20073;-71
2023/01/09 09:58:03;;;;;;;268.58;169.13;;;10.40;1.00;;;;;;4979460;28;20054;-70
2023/01/09 10:00:31;;;;;;;247.90;153.32;;;10.60;1.00;;;;;;4980027;28;20525;-72
2023/01/09 10:03:03;;;;;;;212.65;134.15;;;10.70;1.00;;;;;;4978385;28;20090;-72
2023/01/09 10:05:37;;;;;;;212.43;136.15;;;10.90;1.00;;;;;;4979435;28;20053;-71
2023/01/09 10:08:10;;;;;;;192.27;126.68;;;10.90;99.50;;;;;;4979833;28;20057;-72
2023/01/09 10:10:42;;;;;;;210.23;139.52;;;11.10;30.30;;;;;;4981164;28;20482;-72
2023/01/09 10:16:25;;;;;;;241.73;152.38;;;11.20;99.90;;;;;;4949409;28;20499;-72
2023/01/09 10:19:05;;;;;;;258.05;164.02;;;11.10;1.00;;;;;;4982068;28;20598;-72
2023/01/09 10:21:42;;;;;;;254.55;164.02;;;11.00;1.00;;;;;;4983401;28;20242;-72
2023/01/09 10:24:24;;;;;;;244.70;156.48;;;11.00;99.90;;;;;;4987043;28;20042;-71
2023/01/09 10:26:52;;;;;;;222.30;144.52;;;11.10;99.90;;;;;;4982278;28;20133;-72
2023/01/09 10:29:35;;;;;;;229.77;144.90;;;11.10;1.00;;;;;;4982142;28;20047;-71
2023/01/09 10:32:16;;;;;;;223.82;141.50;;;11.20;1.00;;;;;;4982133;28;20309;-72
2023/01/09 10:34:53;;;;;;;192.82;124.10;;;11.10;1.00;;;;;;4981992;28;20065;-71
2023/01/09 10:37:27;;;;;;;234.13;146.48;;;11.10;1.00;;;;;;4979303;28;20038;-71
2023/01/09 10:39:59;;;;;;;257.25;160.35;;;11.20;1.00;;;;;;4980983;28;20043;-71
2023/01/09 10:42:32;;;;;;;210.90;135.00;;;11.40;1.00;;;;;;4978803;28;20043;-72
2023/01/09 10:45:06;;;;;;;161.13;106.40;;;11.50;1.00;;;;;;4983234;28;20074;-74
2023/01/09 10:47:35;;;;;;;202.80;131.15;;;11.60;99.90;;;;;;4981037;28;20101;-73
2023/01/09 10:50:18;;;;;;;228.02;147.45;;;11.70;99.90;;;;;;4981862;28;20046;-72
2023/01/09 10:52:49;;;;;;;210.80;140.27;;;11.80;99.90;;;;;;4981432;28;20065;-72
2023/01/09 10:55:21;;;;;;;205.43;135.75;;;11.90;99.90;;;;;;4982762;28;20034;-72
2023/01/09 10:57:53;;;;;;;205.65;134.70;;;11.90;99.90;;;;;;4979820;28;20038;-72
2023/01/09 11:00:22;;;;;;;145.98;97.45;;;12.00;99.90;;;;;;4981217;28;20053;-72
2023/01/09 11:02:51;;;;;;;208.77;137.73;;;12.10;1.00;;;;;;4979486;28;20073;-71
2023/01/09 11:05:21;;;;;;;204.57;134.05;;;12.20;1.00;;;;;;4975242;28;20038;-71
2023/01/09 11:07:56;;;;;;;207.63;137.52;;;12.30;1.00;;;;;;4979156;28;20043;-72
2023/01/09 11:10:23;;;;;;;183.10;117.93;;;12.50;1.00;;;;;;4979240;28;20035;-71
2023/01/09 11:12:50;;;;;;;140.30;90.38;;;12.60;1.00;;;;;;4982160;28;20120;-71
2023/01/09 11:15:30;;;;;;;207.88;140.55;;;12.70;5.00;;;;;;4980632;28;20050;-71
2023/01/09 11:18:20;;;;;;;200.20;135.15;;;12.80;99.90;;;;;;4980998;28;20499;-71
2023/01/09 11:20:48;;;;;;;148.70;98.47;;;13.00;99.90;;;;;;4978776;28;20623;-72
2023/01/09 11:23:31;;;;;;;148.50;103.75;;;13.10;1.00;;;;;;4981689;28;20521;-72
2023/01/09 11:26:01;;;;;;;137.55;94.65;;;13.20;1.00;;;;;;4978536;28;20042;-71
2023/01/09 11:28:29;;;;;;;118.22;78.60;;;13.50;1.00;;;;;;4979764;28;20042;-72
2023/01/09 11:30:59;;;;;;;119.47;77.03;;;13.70;1.00;;;;;;4979712;28;20081;-71
2023/01/09 11:33:29;;;;;;;96.05;65.53;;;13.80;1.00;;;;;;4977613;28;20410;-72
2023/01/09 11:36:03;;;;;;;106.50;74.93;;;14.00;1.00;;;;;;4980924;28;20058;-72
2023/01/09 11:38:44;;;;;;;93.10;60.70;;;14.10;1.00;;;;;;4978821;28;20070;-71
2023/01/09 11:41:17;;;;;;;89.68;61.75;;;14.30;1.00;;;;;;4978293;28;20050;-72
2023/01/09 11:43:46;;;;;;;94.15;65.30;;;14.50;1.00;;;;;;4979071;28;20105;-71
2023/01/09 11:46:33;;;;;;;103.07;71.85;;;14.70;1.00;;;;;;4980352;28;20035;-72
2023/01/09 11:49:03;;;;;;;104.40;72.70;;;14.80;1.00;;;;;;4975046;28;20035;-72
2023/01/09 11:51:33;;;;;;;68.80;45.67;;;14.80;1.00;;;;;;4979325;28;20523;-71
2023/01/09 11:54:26;;;;;;;88.03;59.67;;;14.80;1.00;;;;;;4976814;28;20049;-71
2023/01/09 11:56:54;;;;;;;80.90;56.58;;;14.90;1.00;;;;;;4974375;28;20062;-71
2023/01/09 11:59:25;;;;;;;47.30;32.60;;;15.10;1.00;;;;;;4979343;28;20051;-71
2023/01/09 12:02:07;;;;;;;25.17;15.98;;;14.90;1.00;;;;;;4978676;28;20410;-71
2023/01/09 12:04:41;;;;;;;13.32;8.07;;;15.00;1.00;;;;;;4980383;28;20062;-70
2023/01/09 12:07:50;;;;;;;16.92;11.43;;;15.30;1.00;;;;;;4979694;28;20039;-72
2023/01/09 12:10:47;;;;;;;15.73;10.32;;;15.50;1.00;;;;;;4985330;28;20054;-71
2023/01/09 12:13:27;;;;;;;15.73;10.23;;;15.50;1.00;;;;;;4973944;28;20051;-70
2023/01/09 12:16:08;;;;;;;3.85;1.88;;;15.60;1.00;;;;;;4977726;28;20053;-71
2023/01/09 12:18:54;;;;;;;4.97;2.60;;;15.70;1.00;;;;;;4978184;28;20045;-71
2023/01/09 12:21:32;;;;;;;5.25;2.80;;;15.80;1.00;;;;;;4979353;28;20128;-70
2023/01/09 12:24:26;;;;;;;4.90;3.08;;;15.80;1.00;;;;;;4979940;28;20484;-72
2023/01/09 12:27:09;;;;;;;5.43;2.75;;;15.70;1.00;;;;;;4978561;28;20062;-71
2023/01/09 12:29:53;;;;;;;6.47;2.25;;;15.60;1.00;;;;;;4975486;28;20050;-70
2023/01/09 12:32:39;;;;;;;6.57;3.08;;;15.60;1.00;;;;;;4979011;28;20077;-70
2023/01/09 12:35:18;;;;;;;4.32;2.40;;;15.50;1.00;;;;;;4977831;28;20064;-71
2023/01/09 12:38:04;;;;;;;9.73;3.95;;;15.40;1.00;;;;;;4976988;28;20045;-72
2023/01/09 12:40:48;;;;;;;5.60;2.95;;;15.40;1.00;;;;;;4979058;28;20085;-72
2023/01/09 12:43:29;;;;;;;6.50;3.10;;;15.40;1.00;;;;;;4977759;28;20042;-71
2023/01/09 12:46:05;;;;;;;5.80;3.00;;;15.40;1.00;;;;;;4981495;28;20125;-70
2023/01/09 12:48:52;;;;;;;9.50;3.08;;;15.50;1.00;;;;;;4990952;28;20577;-71
2023/01/09 12:51:25;;;;;;;;;;;15.50;1.00;;;;;;4977872;28;20049;-72
2023/01/09 12:53:59;;;;;;;7.15;2.42;;;15.50;1.00;;;;;;4978128;28;19953;-71
2023/01/09 12:56:32;;;;;;;5.68;3.00;;;15.50;1.00;;;;;;4975846;28;20091;-72
2023/01/09 12:59:10;;;;;;;7.47;3.25;;;15.60;1.00;;;;;;4978616;28;20132;-71
2023/01/09 13:01:42;;;;;;;6.30;3.45;;;15.70;1.00;;;;;;4980589;28;20050;-73
2023/01/09 13:04:15;;;;;;;8.38;3.20;;;15.70;1.00;;;;;;4978161;28;20048;-70
2023/01/09 13:06:48;;;;;;;10.57;2.40;;;15.70;1.00;;;;;;4978730;28;20039;-70
2023/01/09 13:09:24;;;;;;;7.97;3.60;;;15.70;1.00;;;;;;4978083;28;20051;-70
2023/01/09 13:12:01;;;;;;;10.95;4.40;;;15.70;1.00;;;;;;4980330;28;20471;-70